Huvudsida
METAR-TAF:

METAR-TAF

Flygplatser :

Kristianstad Österlen Airport

Kristianstad, Sverige

latitud: 55-55N, longitud: 014-05E, höjd: 23 m

Aktuellt väderrapport

Denna rapport gjordes för 26 minuter sedan, klockan 13:20 UTC
Vind 6 kt från syd/sydost
Temperatur 18°C
Fuktighet 83%
Tryck 1007 hPa
Sikt 10 km eller mer

METAR: ESMK 171320Z AUTO 15006KT 9999 FEW047/// SCT064/// 18/15 Q1007

Tid: 15:46 (13:46 UTC)

Väderprognos

Denna rapport gjordes för 23 timmar och 48 minuter sedan, klockan 13:58 UTC
Prognos gäller från 16 kl. 15 UTC till 16 kl. 17 UTC
Vind 8 kt från väst/sydväst
Sikt 10 km eller mer
Brutna moln på en höjd av 3000 ft
Temporärt
från 16 kl. 15 UTC till 16 kl. 17 UTC
Få moln på en höjd av 1200 ft
Spridda moln på en höjd av 2000 ft, Högtornande cumulus.

TAF: ESMK 161358Z 1615/1617 24008KT 9999 BKN030 TEMPO 1615/1617 FEW012 SCT020TCU

Aktuella väderrapporter och prognoser från 4000 flygplatser (METAR- och TAF-rapporter).

De tillgängliga stationerna syns som gula och röda prickar på kartan.

För musen över prickarna för att se namnen på stationerna.

Klicka sedan för att få väderrapporter och prognoser.

För att ändra kartan: Klicka på de gröna knapparna med ett svart kors på för att zooma in; den gröna knappen med ett streck på för att zooma ut; eller på de gröna pilarna för angränsande kartor.


METAR-TAF: